sensor_id;sensor_type;location;lat;lon;timestamp;temperature;humidity
15625;DHT22;7912;51.376;6.126;2022-12-20T00:02:08;14.90;99.90
15625;DHT22;7912;51.376;6.126;2022-12-20T00:04:41;14.90;99.90
15625;DHT22;7912;51.376;6.126;2022-12-20T00:07:16;14.90;99.90
15625;DHT22;7912;51.376;6.126;2022-12-20T00:09:51;14.90;99.90
15625;DHT22;7912;51.376;6.126;2022-12-20T00:12:24;14.90;99.90
15625;DHT22;7912;51.376;6.126;2022-12-20T00:14:55;14.90;99.90
15625;DHT22;7912;51.376;6.126;2022-12-20T00:17:23;14.90;99.90
15625;DHT22;7912;51.376;6.126;2022-12-20T00:24:06;14.90;99.90
15625;DHT22;7912;51.376;6.126;2022-12-20T00:26:52;14.90;99.90
15625;DHT22;7912;51.376;6.126;2022-12-20T00:29:25;14.90;99.90
15625;DHT22;7912;51.376;6.126;2022-12-20T00:31:57;14.90;99.90
15625;DHT22;7912;51.376;6.126;2022-12-20T00:34:42;14.90;99.90
15625;DHT22;7912;51.376;6.126;2022-12-20T00:37:14;14.90;99.90
15625;DHT22;7912;51.376;6.126;2022-12-20T00:39:42;14.90;99.90
15625;DHT22;7912;51.376;6.126;2022-12-20T00:42:20;14.90;99.90
15625;DHT22;7912;51.376;6.126;2022-12-20T00:44:50;14.90;99.90
15625;DHT22;7912;51.376;6.126;2022-12-20T00:47:29;14.90;99.90
15625;DHT22;7912;51.376;6.126;2022-12-20T00:50:05;14.90;99.90
15625;DHT22;7912;51.376;6.126;2022-12-20T00:52:33;14.90;99.90
15625;DHT22;7912;51.376;6.126;2022-12-20T00:55:00;15.00;99.90
15625;DHT22;7912;51.376;6.126;2022-12-20T00:57:27;14.90;99.90
15625;DHT22;7912;51.376;6.126;2022-12-20T00:59:54;15.00;99.90
15625;DHT22;7912;51.376;6.126;2022-12-20T01:02:22;14.90;99.90
15625;DHT22;7912;51.376;6.126;2022-12-20T01:08:52;14.90;99.90
15625;DHT22;7912;51.376;6.126;2022-12-20T01:11:33;14.90;99.90
15625;DHT22;7912;51.376;6.126;2022-12-20T01:14:05;14.80;99.90
15625;DHT22;7912;51.376;6.126;2022-12-20T01:16:38;14.80;99.90
15625;DHT22;7912;51.376;6.126;2022-12-20T01:19:10;14.80;99.90
15625;DHT22;7912;51.376;6.126;2022-12-20T01:21:40;14.80;99.90
15625;DHT22;7912;51.376;6.126;2022-12-20T01:24:18;14.80;99.90
15625;DHT22;7912;51.376;6.126;2022-12-20T01:26:47;14.80;99.90
15625;DHT22;7912;51.376;6.126;2022-12-20T01:29:14;14.80;99.90
15625;DHT22;7912;51.376;6.126;2022-12-20T01:31:42;14.80;99.90
15625;DHT22;7912;51.376;6.126;2022-12-20T01:34:10;14.80;99.90
15625;DHT22;7912;51.376;6.126;2022-12-20T01:36:39;14.80;99.90
15625;DHT22;7912;51.376;6.126;2022-12-20T01:39:10;14.80;99.90
15625;DHT22;7912;51.376;6.126;2022-12-20T01:41:41;14.80;99.90
15625;DHT22;7912;51.376;6.126;2022-12-20T01:46:53;14.80;99.90
15625;DHT22;7912;51.376;6.126;2022-12-20T01:49:32;14.90;99.90
15625;DHT22;7912;51.376;6.126;2022-12-20T01:52:18;14.90;99.90
15625;DHT22;7912;51.376;6.126;2022-12-20T01:55:03;14.90;99.90
15625;DHT22;7912;51.376;6.126;2022-12-20T02:00:22;14.90;99.90
15625;DHT22;7912;51.376;6.126;2022-12-20T02:02:50;14.90;99.90
15625;DHT22;7912;51.376;6.126;2022-12-20T02:05:25;14.90;99.90
15625;DHT22;7912;51.376;6.126;2022-12-20T02:07:56;14.90;99.90
15625;DHT22;7912;51.376;6.126;2022-12-20T02:16:25;14.80;99.90
15625;DHT22;7912;51.376;6.126;2022-12-20T02:30:34;14.70;99.90
15625;DHT22;7912;51.376;6.126;2022-12-20T02:33:09;14.70;99.90
15625;DHT22;7912;51.376;6.126;2022-12-20T02:35:40;14.70;99.90
15625;DHT22;7912;51.376;6.126;2022-12-20T02:41:24;14.60;99.90
15625;DHT22;7912;51.376;6.126;2022-12-20T02:44:04;14.60;99.90
15625;DHT22;7912;51.376;6.126;2022-12-20T02:46:57;14.60;99.90
15625;DHT22;7912;51.376;6.126;2022-12-20T02:49:30;14.50;99.90
15625;DHT22;7912;51.376;6.126;2022-12-20T02:52:02;14.50;99.90
15625;DHT22;7912;51.376;6.126;2022-12-20T02:54:37;14.50;99.90
15625;DHT22;7912;51.376;6.126;2022-12-20T02:57:43;14.50;99.90
15625;DHT22;7912;51.376;6.126;2022-12-20T03:00:32;14.50;99.90
15625;DHT22;7912;51.376;6.126;2022-12-20T03:03:06;14.50;99.90
15625;DHT22;7912;51.376;6.126;2022-12-20T03:05:53;14.50;99.90
15625;DHT22;7912;51.376;6.126;2022-12-20T03:08:22;14.50;99.90
15625;DHT22;7912;51.376;6.126;2022-12-20T03:11:11;14.50;99.90
15625;DHT22;7912;51.376;6.126;2022-12-20T03:13:39;14.50;99.90
15625;DHT22;7912;51.376;6.126;2022-12-20T03:16:07;14.50;99.90
15625;DHT22;7912;51.376;6.126;2022-12-20T03:18:37;14.50;99.90
15625;DHT22;7912;51.376;6.126;2022-12-20T03:21:05;14.50;99.90
15625;DHT22;7912;51.376;6.126;2022-12-20T03:23:34;14.50;99.90
15625;DHT22;7912;51.376;6.126;2022-12-20T03:26:04;14.40;99.90
15625;DHT22;7912;51.376;6.126;2022-12-20T03:28:32;14.40;99.90
15625;DHT22;7912;51.376;6.126;2022-12-20T03:31:01;14.40;99.90
15625;DHT22;7912;51.376;6.126;2022-12-20T03:33:30;14.30;99.90
15625;DHT22;7912;51.376;6.126;2022-12-20T03:36:01;14.30;99.90
15625;DHT22;7912;51.376;6.126;2022-12-20T03:38:32;14.30;99.90
15625;DHT22;7912;51.376;6.126;2022-12-20T03:41:00;14.30;99.90
15625;DHT22;7912;51.376;6.126;2022-12-20T03:43:33;14.20;99.90
15625;DHT22;7912;51.376;6.126;2022-12-20T03:46:02;14.20;99.90
15625;DHT22;7912;51.376;6.126;2022-12-20T03:48:35;14.20;99.90
15625;DHT22;7912;51.376;6.126;2022-12-20T03:51:08;14.20;99.90
15625;DHT22;7912;51.376;6.126;2022-12-20T03:53:38;14.20;99.90
15625;DHT22;7912;51.376;6.126;2022-12-20T03:56:06;14.20;99.90
15625;DHT22;7912;51.376;6.126;2022-12-20T03:58:39;14.20;99.90
15625;DHT22;7912;51.376;6.126;2022-12-20T04:01:18;14.20;99.90
15625;DHT22;7912;51.376;6.126;2022-12-20T04:03:49;14.20;99.90
15625;DHT22;7912;51.376;6.126;2022-12-20T04:06:18;14.10;99.90
15625;DHT22;7912;51.376;6.126;2022-12-20T04:08:54;14.10;99.90
15625;DHT22;7912;51.376;6.126;2022-12-20T04:11:25;14.10;99.90
15625;DHT22;7912;51.376;6.126;2022-12-20T04:13:55;14.10;99.90
15625;DHT22;7912;51.376;6.126;2022-12-20T04:16:28;14.10;99.90
15625;DHT22;7912;51.376;6.126;2022-12-20T04:18:56;14.10;99.90
15625;DHT22;7912;51.376;6.126;2022-12-20T04:25:06;14.10;99.90
15625;DHT22;7912;51.376;6.126;2022-12-20T04:27:33;14.10;99.90
15625;DHT22;7912;51.376;6.126;2022-12-20T04:30:00;14.10;99.90
15625;DHT22;7912;51.376;6.126;2022-12-20T04:32:28;14.10;99.90
15625;DHT22;7912;51.376;6.126;2022-12-20T04:34:55;14.10;99.90
15625;DHT22;7912;51.376;6.126;2022-12-20T04:37:22;14.10;99.90
15625;DHT22;7912;51.376;6.126;2022-12-20T04:39:49;14.10;99.90
15625;DHT22;7912;51.376;6.126;2022-12-20T04:42:16;14.10;99.90
15625;DHT22;7912;51.376;6.126;2022-12-20T04:44:44;14.10;99.90
15625;DHT22;7912;51.376;6.126;2022-12-20T04:47:11;14.10;99.90
15625;DHT22;7912;51.376;6.126;2022-12-20T04:49:38;14.10;99.90
15625;DHT22;7912;51.376;6.126;2022-12-20T04:52:09;14.00;99.90
15625;DHT22;7912;51.376;6.126;2022-12-20T04:54:55;14.00;99.90
15625;DHT22;7912;51.376;6.126;2022-12-20T04:57:23;14.00;99.90
15625;DHT22;7912;51.376;6.126;2022-12-20T04:59:51;13.90;99.90
15625;DHT22;7912;51.376;6.126;2022-12-20T05:02:18;13.90;99.90
15625;DHT22;7912;51.376;6.126;2022-12-20T05:04:46;13.90;99.90
15625;DHT22;7912;51.376;6.126;2022-12-20T05:07:16;13.90;99.90
15625;DHT22;7912;51.376;6.126;2022-12-20T05:09:44;13.90;99.90
15625;DHT22;7912;51.376;6.126;2022-12-20T05:12:12;13.90;99.90
15625;DHT22;7912;51.376;6.126;2022-12-20T05:14:40;13.90;99.90
15625;DHT22;7912;51.376;6.126;2022-12-20T05:17:11;13.80;99.90
15625;DHT22;7912;51.376;6.126;2022-12-20T05:19:39;13.80;99.90
15625;DHT22;7912;51.376;6.126;2022-12-20T05:22:10;13.80;99.90
15625;DHT22;7912;51.376;6.126;2022-12-20T05:24:55;13.80;99.90
15625;DHT22;7912;51.376;6.126;2022-12-20T05:27:51;13.90;99.90
15625;DHT22;7912;51.376;6.126;2022-12-20T05:30:27;13.90;99.90
15625;DHT22;7912;51.376;6.126;2022-12-20T05:32:56;13.90;99.90
15625;DHT22;7912;51.376;6.126;2022-12-20T05:35:24;13.90;99.90
15625;DHT22;7912;51.376;6.126;2022-12-20T05:37:57;13.80;99.90
15625;DHT22;7912;51.376;6.126;2022-12-20T05:40:33;13.90;99.90
15625;DHT22;7912;51.376;6.126;2022-12-20T05:43:01;13.90;99.90
15625;DHT22;7912;51.376;6.126;2022-12-20T05:45:34;13.90;99.90
15625;DHT22;7912;51.376;6.126;2022-12-20T05:48:15;13.90;99.90
15625;DHT22;7912;51.376;6.126;2022-12-20T05:51:06;14.00;99.90
15625;DHT22;7912;51.376;6.126;2022-12-20T05:53:46;14.00;99.90
15625;DHT22;7912;51.376;6.126;2022-12-20T05:56:17;14.00;99.90
15625;DHT22;7912;51.376;6.126;2022-12-20T05:58:47;14.10;99.90
15625;DHT22;7912;51.376;6.126;2022-12-20T06:01:20;14.10;99.90
15625;DHT22;7912;51.376;6.126;2022-12-20T06:03:58;14.10;99.90
15625;DHT22;7912;51.376;6.126;2022-12-20T06:06:29;14.10;99.90
15625;DHT22;7912;51.376;6.126;2022-12-20T06:09:14;14.10;99.90
15625;DHT22;7912;51.376;6.126;2022-12-20T06:11:44;14.10;99.90
15625;DHT22;7912;51.376;6.126;2022-12-20T06:14:13;14.10;99.90
15625;DHT22;7912;51.376;6.126;2022-12-20T06:16:40;14.20;99.90
15625;DHT22;7912;51.376;6.126;2022-12-20T06:19:07;14.20;99.90
15625;DHT22;7912;51.376;6.126;2022-12-20T06:21:35;14.20;99.90
15625;DHT22;7912;51.376;6.126;2022-12-20T06:24:02;14.10;99.90
15625;DHT22;7912;51.376;6.126;2022-12-20T06:26:29;14.20;99.90
15625;DHT22;7912;51.376;6.126;2022-12-20T06:29:05;14.20;99.90
15625;DHT22;7912;51.376;6.126;2022-12-20T06:31:35;14.20;99.90
15625;DHT22;7912;51.376;6.126;2022-12-20T06:34:02;14.20;99.90
15625;DHT22;7912;51.376;6.126;2022-12-20T06:36:29;14.20;99.90
15625;DHT22;7912;51.376;6.126;2022-12-20T06:38:56;14.20;99.90
15625;DHT22;7912;51.376;6.126;2022-12-20T06:41:23;14.20;99.90
15625;DHT22;7912;51.376;6.126;2022-12-20T06:43:51;14.20;99.90
15625;DHT22;7912;51.376;6.126;2022-12-20T06:46:18;14.20;99.90
15625;DHT22;7912;51.376;6.126;2022-12-20T06:48:46;14.20;99.90
15625;DHT22;7912;51.376;6.126;2022-12-20T06:51:13;14.20;99.90
15625;DHT22;7912;51.376;6.126;2022-12-20T06:53:41;14.20;99.90
15625;DHT22;7912;51.376;6.126;2022-12-20T06:56:17;14.20;99.90
15625;DHT22;7912;51.376;6.126;2022-12-20T06:58:45;14.20;99.90
15625;DHT22;7912;51.376;6.126;2022-12-20T07:01:13;14.20;99.90
15625;DHT22;7912;51.376;6.126;2022-12-20T07:03:40;14.20;99.90
15625;DHT22;7912;51.376;6.126;2022-12-20T07:06:07;14.20;99.90
15625;DHT22;7912;51.376;6.126;2022-12-20T07:08:37;14.20;99.90
15625;DHT22;7912;51.376;6.126;2022-12-20T07:11:05;14.20;99.90
15625;DHT22;7912;51.376;6.126;2022-12-20T07:13:35;14.30;99.90
15625;DHT22;7912;51.376;6.126;2022-12-20T07:16:03;14.30;99.90
15625;DHT22;7912;51.376;6.126;2022-12-20T07:18:31;14.30;99.90
15625;DHT22;7912;51.376;6.126;2022-12-20T07:21:02;14.30;99.90
15625;DHT22;7912;51.376;6.126;2022-12-20T07:23:34;14.40;99.90
15625;DHT22;7912;51.376;6.126;2022-12-20T07:26:02;14.40;99.90
15625;DHT22;7912;51.376;6.126;2022-12-20T07:28:31;14.40;99.90
15625;DHT22;7912;51.376;6.126;2022-12-20T07:31:01;14.40;99.90
15625;DHT22;7912;51.376;6.126;2022-12-20T07:33:29;14.50;99.90
15625;DHT22;7912;51.376;6.126;2022-12-20T07:36:09;14.50;99.90
15625;DHT22;7912;51.376;6.126;2022-12-20T07:38:38;14.50;99.90
15625;DHT22;7912;51.376;6.126;2022-12-20T07:41:07;14.50;99.90
15625;DHT22;7912;51.376;6.126;2022-12-20T07:43:41;14.50;99.90
15625;DHT22;7912;51.376;6.126;2022-12-20T07:46:13;14.50;99.90
15625;DHT22;7912;51.376;6.126;2022-12-20T07:48:42;14.50;99.90
15625;DHT22;7912;51.376;6.126;2022-12-20T07:51:25;14.50;99.90
15625;DHT22;7912;51.376;6.126;2022-12-20T07:54:05;14.40;99.90
15625;DHT22;7912;51.376;6.126;2022-12-20T07:56:42;14.40;99.90
15625;DHT22;7912;51.376;6.126;2022-12-20T07:59:15;14.40;99.90
15625;DHT22;7912;51.376;6.126;2022-12-20T08:01:46;14.40;99.90
15625;DHT22;7912;51.376;6.126;2022-12-20T08:04:20;14.40;99.90
15625;DHT22;7912;51.376;6.126;2022-12-20T08:06:51;14.40;99.90
15625;DHT22;7912;51.376;6.126;2022-12-20T08:09:23;14.40;99.90
15625;DHT22;7912;51.376;6.126;2022-12-20T08:11:54;14.40;99.90
15625;DHT22;7912;51.376;6.126;2022-12-20T08:14:21;14.40;99.90
15625;DHT22;7912;51.376;6.126;2022-12-20T08:16:52;14.40;99.90
15625;DHT22;7912;51.376;6.126;2022-12-20T08:19:22;14.40;99.90
15625;DHT22;7912;51.376;6.126;2022-12-20T08:21:57;14.40;99.90
15625;DHT22;7912;51.376;6.126;2022-12-20T08:24:24;14.40;99.90
15625;DHT22;7912;51.376;6.126;2022-12-20T08:26:52;14.40;99.90
15625;DHT22;7912;51.376;6.126;2022-12-20T08:29:19;14.40;99.90
15625;DHT22;7912;51.376;6.126;2022-12-20T08:31:47;14.40;99.90
15625;DHT22;7912;51.376;6.126;2022-12-20T08:34:16;14.50;99.90
15625;DHT22;7912;51.376;6.126;2022-12-20T08:36:44;14.50;99.90
15625;DHT22;7912;51.376;6.126;2022-12-20T08:39:11;14.50;99.90
15625;DHT22;7912;51.376;6.126;2022-12-20T08:41:39;14.50;99.90
15625;DHT22;7912;51.376;6.126;2022-12-20T08:44:06;14.50;99.90
15625;DHT22;7912;51.376;6.126;2022-12-20T08:46:34;14.50;99.90
15625;DHT22;7912;51.376;6.126;2022-12-20T08:49:03;14.60;99.90
15625;DHT22;7912;51.376;6.126;2022-12-20T08:51:31;14.60;99.90
15625;DHT22;7912;51.376;6.126;2022-12-20T08:53:59;14.60;99.90
15625;DHT22;7912;51.376;6.126;2022-12-20T08:56:28;14.60;99.90
15625;DHT22;7912;51.376;6.126;2022-12-20T08:58:55;14.60;99.90
15625;DHT22;7912;51.376;6.126;2022-12-20T09:01:23;14.60;99.90
15625;DHT22;7912;51.376;6.126;2022-12-20T09:03:52;14.60;99.90
15625;DHT22;7912;51.376;6.126;2022-12-20T09:06:21;14.60;99.90
15625;DHT22;7912;51.376;6.126;2022-12-20T09:08:49;14.60;99.90
15625;DHT22;7912;51.376;6.126;2022-12-20T09:11:19;14.60;99.90
15625;DHT22;7912;51.376;6.126;2022-12-20T09:13:50;14.60;99.90
15625;DHT22;7912;51.376;6.126;2022-12-20T09:16:22;14.60;99.90
15625;DHT22;7912;51.376;6.126;2022-12-20T09:18:55;14.60;99.90
15625;DHT22;7912;51.376;6.126;2022-12-20T09:21:32;14.60;99.90
15625;DHT22;7912;51.376;6.126;2022-12-20T09:23:59;14.60;99.90
15625;DHT22;7912;51.376;6.126;2022-12-20T09:26:27;14.50;99.90
15625;DHT22;7912;51.376;6.126;2022-12-20T09:28:54;14.50;99.90
15625;DHT22;7912;51.376;6.126;2022-12-20T09:31:23;14.50;99.90
15625;DHT22;7912;51.376;6.126;2022-12-20T09:33:55;14.50;99.90
15625;DHT22;7912;51.376;6.126;2022-12-20T09:36:25;14.50;99.90
15625;DHT22;7912;51.376;6.126;2022-12-20T09:38:54;14.50;99.90
15625;DHT22;7912;51.376;6.126;2022-12-20T09:41:41;14.50;99.90
15625;DHT22;7912;51.376;6.126;2022-12-20T09:47:06;14.50;99.90
15625;DHT22;7912;51.376;6.126;2022-12-20T09:49:46;14.60;99.90
15625;DHT22;7912;51.376;6.126;2022-12-20T09:55:44;14.60;99.90
15625;DHT22;7912;51.376;6.126;2022-12-20T10:01:19;14.60;99.90
15625;DHT22;7912;51.376;6.126;2022-12-20T10:03:53;14.70;99.90
15625;DHT22;7912;51.376;6.126;2022-12-20T10:06:57;14.70;99.90
15625;DHT22;7912;51.376;6.126;2022-12-20T10:13:24;14.70;99.90
15625;DHT22;7912;51.376;6.126;2022-12-20T10:25:27;14.80;99.90
15625;DHT22;7912;51.376;6.126;2022-12-20T10:27:52;14.90;99.90
15625;DHT22;7912;51.376;6.126;2022-12-20T10:30:25;15.00;99.90
15625;DHT22;7912;51.376;6.126;2022-12-20T10:32:55;15.10;99.90
15625;DHT22;7912;51.376;6.126;2022-12-20T10:35:24;15.20;99.90
15625;DHT22;7912;51.376;6.126;2022-12-20T10:38:11;15.30;99.90
15625;DHT22;7912;51.376;6.126;2022-12-20T10:44:34;15.50;99.90
15625;DHT22;7912;51.376;6.126;2022-12-20T10:46:46;15.50;99.90
15625;DHT22;7912;51.376;6.126;2022-12-20T10:51:58;15.60;99.90
15625;DHT22;7912;51.376;6.126;2022-12-20T10:54:45;15.60;99.90
15625;DHT22;7912;51.376;6.126;2022-12-20T10:57:23;15.60;99.90
15625;DHT22;7912;51.376;6.126;2022-12-20T10:59:57;15.60;99.90
15625;DHT22;7912;51.376;6.126;2022-12-20T11:02:30;15.60;99.90
15625;DHT22;7912;51.376;6.126;2022-12-20T11:07:55;15.60;99.90
15625;DHT22;7912;51.376;6.126;2022-12-20T11:10:44;15.60;99.90
15625;DHT22;7912;51.376;6.126;2022-12-20T11:13:21;15.60;99.90
15625;DHT22;7912;51.376;6.126;2022-12-20T11:15:53;15.60;99.90
15625;DHT22;7912;51.376;6.126;2022-12-20T11:18:43;15.60;99.90
15625;DHT22;7912;51.376;6.126;2022-12-20T11:21:38;15.60;99.90
15625;DHT22;7912;51.376;6.126;2022-12-20T11:24:32;15.60;99.90
15625;DHT22;7912;51.376;6.126;2022-12-20T11:30:19;15.60;99.90
15625;DHT22;7912;51.376;6.126;2022-12-20T11:36:51;15.60;99.90
15625;DHT22;7912;51.376;6.126;2022-12-20T11:40:00;15.60;99.90
15625;DHT22;7912;51.376;6.126;2022-12-20T11:45:56;15.50;99.90
15625;DHT22;7912;51.376;6.126;2022-12-20T11:51:24;15.50;99.90
15625;DHT22;7912;51.376;6.126;2022-12-20T11:57:28;15.40;99.90
15625;DHT22;7912;51.376;6.126;2022-12-20T12:00:22;15.40;99.90
15625;DHT22;7912;51.376;6.126;2022-12-20T12:02:56;15.40;99.90
15625;DHT22;7912;51.376;6.126;2022-12-20T12:05:43;15.40;99.90
15625;DHT22;7912;51.376;6.126;2022-12-20T12:08:19;15.50;99.90
15625;DHT22;7912;51.376;6.126;2022-12-20T12:11:05;15.50;99.90
15625;DHT22;7912;51.376;6.126;2022-12-20T12:14:27;15.50;99.90
15625;DHT22;7912;51.376;6.126;2022-12-20T12:26:14;15.50;99.90
15625;DHT22;7912;51.376;6.126;2022-12-20T12:29:12;15.50;99.90
15625;DHT22;7912;51.376;6.126;2022-12-20T12:44:29;15.30;99.90
15625;DHT22;7912;51.376;6.126;2022-12-20T12:47:20;15.30;99.90
15625;DHT22;7912;51.376;6.126;2022-12-20T12:49:50;15.30;99.90
15625;DHT22;7912;51.376;6.126;2022-12-20T12:55:02;15.20;99.90
15625;DHT22;7912;51.376;6.126;2022-12-20T12:57:56;15.20;99.90
15625;DHT22;7912;51.376;6.126;2022-12-20T13:00:54;15.10;99.90
15625;DHT22;7912;51.376;6.126;2022-12-20T13:11:36;14.90;99.90
15625;DHT22;7912;51.376;6.126;2022-12-20T13:19:53;14.80;99.90
15625;DHT22;7912;51.376;6.126;2022-12-20T13:22:23;14.70;99.90
15625;DHT22;7912;51.376;6.126;2022-12-20T13:24:59;14.70;99.90
15625;DHT22;7912;51.376;6.126;2022-12-20T13:27:36;14.60;99.90
15625;DHT22;7912;51.376;6.126;2022-12-20T13:38:34;14.40;99.90
15625;DHT22;7912;51.376;6.126;2022-12-20T13:41:35;14.40;99.90
15625;DHT22;7912;51.376;6.126;2022-12-20T13:49:47;14.30;99.90
15625;DHT22;7912;51.376;6.126;2022-12-20T13:52:33;14.30;99.90
15625;DHT22;7912;51.376;6.126;2022-12-20T13:55:20;14.30;99.90
15625;DHT22;7912;51.376;6.126;2022-12-20T13:57:53;14.20;99.90
15625;DHT22;7912;51.376;6.126;2022-12-20T14:00:25;14.20;99.90
15625;DHT22;7912;51.376;6.126;2022-12-20T14:02:55;14.20;99.90
15625;DHT22;7912;51.376;6.126;2022-12-20T14:05:32;14.20;99.90
15625;DHT22;7912;51.376;6.126;2022-12-20T14:08:42;14.20;99.90
15625;DHT22;7912;51.376;6.126;2022-12-20T14:11:23;14.20;99.90
15625;DHT22;7912;51.376;6.126;2022-12-20T14:14:00;14.10;99.90
15625;DHT22;7912;51.376;6.126;2022-12-20T14:16:31;14.20;99.90
15625;DHT22;7912;51.376;6.126;2022-12-20T14:19:00;14.10;99.90
15625;DHT22;7912;51.376;6.126;2022-12-20T14:21:42;14.10;99.90
15625;DHT22;7912;51.376;6.126;2022-12-20T14:24:16;14.10;99.90
15625;DHT22;7912;51.376;6.126;2022-12-20T14:26:50;14.10;99.90
15625;DHT22;7912;51.376;6.126;2022-12-20T14:29:26;14.10;99.90
15625;DHT22;7912;51.376;6.126;2022-12-20T14:31:56;14.10;99.90
15625;DHT22;7912;51.376;6.126;2022-12-20T14:34:31;14.10;99.90
15625;DHT22;7912;51.376;6.126;2022-12-20T14:37:36;14.10;99.90
15625;DHT22;7912;51.376;6.126;2022-12-20T14:42:38;14.10;99.90
15625;DHT22;7912;51.376;6.126;2022-12-20T14:47:37;14.10;99.90
15625;DHT22;7912;51.376;6.126;2022-12-20T14:50:21;14.10;99.90
15625;DHT22;7912;51.376;6.126;2022-12-20T14:52:55;14.10;99.90
15625;DHT22;7912;51.376;6.126;2022-12-20T14:55:31;14.10;99.90
15625;DHT22;7912;51.376;6.126;2022-12-20T14:58:23;14.00;99.90
15625;DHT22;7912;51.376;6.126;2022-12-20T15:03:24;14.00;99.90
15625;DHT22;7912;51.376;6.126;2022-12-20T15:05:55;14.00;99.90
15625;DHT22;7912;51.376;6.126;2022-12-20T15:10:58;14.00;99.90
15625;DHT22;7912;51.376;6.126;2022-12-20T15:13:32;14.00;99.90
15625;DHT22;7912;51.376;6.126;2022-12-20T15:16:28;14.00;99.90
15625;DHT22;7912;51.376;6.126;2022-12-20T15:18:59;14.00;99.90
15625;DHT22;7912;51.376;6.126;2022-12-20T15:21:33;14.00;99.90
15625;DHT22;7912;51.376;6.126;2022-12-20T15:24:15;14.00;99.90
15625;DHT22;7912;51.376;6.126;2022-12-20T15:26:45;14.00;99.90
15625;DHT22;7912;51.376;6.126;2022-12-20T15:29:17;14.00;99.90
15625;DHT22;7912;51.376;6.126;2022-12-20T15:31:54;14.00;99.90
15625;DHT22;7912;51.376;6.126;2022-12-20T15:34:36;13.90;99.90
15625;DHT22;7912;51.376;6.126;2022-12-20T15:37:04;14.00;99.90
15625;DHT22;7912;51.376;6.126;2022-12-20T15:39:33;14.00;99.90
15625;DHT22;7912;51.376;6.126;2022-12-20T15:42:02;14.00;99.90
15625;DHT22;7912;51.376;6.126;2022-12-20T15:44:31;14.00;99.90
15625;DHT22;7912;51.376;6.126;2022-12-20T15:46:59;14.00;99.90
15625;DHT22;7912;51.376;6.126;2022-12-20T15:49:29;14.00;99.90
15625;DHT22;7912;51.376;6.126;2022-12-20T15:51:58;14.00;99.90
15625;DHT22;7912;51.376;6.126;2022-12-20T15:54:30;14.00;99.90
15625;DHT22;7912;51.376;6.126;2022-12-20T15:57:02;14.00;99.90
15625;DHT22;7912;51.376;6.126;2022-12-20T15:59:33;14.00;99.90
15625;DHT22;7912;51.376;6.126;2022-12-20T16:02:26;14.00;99.90
15625;DHT22;7912;51.376;6.126;2022-12-20T16:08:19;14.00;99.90
15625;DHT22;7912;51.376;6.126;2022-12-20T16:10:47;14.00;99.90
15625;DHT22;7912;51.376;6.126;2022-12-20T16:13:23;14.00;99.90
15625;DHT22;7912;51.376;6.126;2022-12-20T16:15:53;14.00;99.90
15625;DHT22;7912;51.376;6.126;2022-12-20T16:18:24;14.00;99.90
15625;DHT22;7912;51.376;6.126;2022-12-20T16:20:58;13.90;99.90
15625;DHT22;7912;51.376;6.126;2022-12-20T16:23:25;14.00;99.90
15625;DHT22;7912;51.376;6.126;2022-12-20T16:26:18;13.90;99.90
15625;DHT22;7912;51.376;6.126;2022-12-20T16:28:48;13.90;99.90
15625;DHT22;7912;51.376;6.126;2022-12-20T16:31:31;13.90;99.90
15625;DHT22;7912;51.376;6.126;2022-12-20T16:34:04;13.90;99.90
15625;DHT22;7912;51.376;6.126;2022-12-20T16:36:33;13.90;99.90
15625;DHT22;7912;51.376;6.126;2022-12-20T16:39:00;13.90;99.90
15625;DHT22;7912;51.376;6.126;2022-12-20T16:41:30;13.90;99.90
15625;DHT22;7912;51.376;6.126;2022-12-20T16:44:00;13.90;99.90
15625;DHT22;7912;51.376;6.126;2022-12-20T16:46:30;13.90;99.90
15625;DHT22;7912;51.376;6.126;2022-12-20T16:48:59;13.90;99.90
15625;DHT22;7912;51.376;6.126;2022-12-20T16:51:29;13.90;99.90
15625;DHT22;7912;51.376;6.126;2022-12-20T16:54:03;13.80;99.90
15625;DHT22;7912;51.376;6.126;2022-12-20T16:56:46;13.80;99.90
15625;DHT22;7912;51.376;6.126;2022-12-20T16:59:17;13.80;99.90
15625;DHT22;7912;51.376;6.126;2022-12-20T17:01:53;13.80;99.90
15625;DHT22;7912;51.376;6.126;2022-12-20T17:04:23;13.80;99.90
15625;DHT22;7912;51.376;6.126;2022-12-20T17:06:52;13.80;99.90
15625;DHT22;7912;51.376;6.126;2022-12-20T17:09:22;13.80;99.90
15625;DHT22;7912;51.376;6.126;2022-12-20T17:11:49;13.80;99.90
15625;DHT22;7912;51.376;6.126;2022-12-20T17:14:17;13.80;99.90
15625;DHT22;7912;51.376;6.126;2022-12-20T17:16:45;13.80;99.90
15625;DHT22;7912;51.376;6.126;2022-12-20T17:19:15;13.80;99.90
15625;DHT22;7912;51.376;6.126;2022-12-20T17:21:47;13.80;99.90
15625;DHT22;7912;51.376;6.126;2022-12-20T17:24:32;13.80;99.90
15625;DHT22;7912;51.376;6.126;2022-12-20T17:26:59;13.80;99.90
15625;DHT22;7912;51.376;6.126;2022-12-20T17:29:27;13.80;99.90
15625;DHT22;7912;51.376;6.126;2022-12-20T17:31:54;13.80;99.90
15625;DHT22;7912;51.376;6.126;2022-12-20T17:34:26;13.80;99.90
15625;DHT22;7912;51.376;6.126;2022-12-20T17:36:56;13.80;99.90
15625;DHT22;7912;51.376;6.126;2022-12-20T17:39:25;13.80;99.90
15625;DHT22;7912;51.376;6.126;2022-12-20T17:41:54;13.80;99.90
15625;DHT22;7912;51.376;6.126;2022-12-20T17:44:25;13.80;99.90
15625;DHT22;7912;51.376;6.126;2022-12-20T17:46:56;13.80;99.90
15625;DHT22;7912;51.376;6.126;2022-12-20T17:49:23;13.80;99.90
15625;DHT22;7912;51.376;6.126;2022-12-20T17:51:51;13.70;99.90
15625;DHT22;7912;51.376;6.126;2022-12-20T17:54:25;13.70;99.90
15625;DHT22;7912;51.376;6.126;2022-12-20T17:57:02;13.70;99.90
15625;DHT22;7912;51.376;6.126;2022-12-20T17:59:29;13.70;99.90
15625;DHT22;7912;51.376;6.126;2022-12-20T18:01:56;13.70;99.90
15625;DHT22;7912;51.376;6.126;2022-12-20T18:04:24;13.70;99.90
15625;DHT22;7912;51.376;6.126;2022-12-20T18:06:57;13.70;99.90
15625;DHT22;7912;51.376;6.126;2022-12-20T18:09:26;13.70;99.90
15625;DHT22;7912;51.376;6.126;2022-12-20T18:11:54;13.70;99.90
15625;DHT22;7912;51.376;6.126;2022-12-20T18:14:21;13.70;99.90
15625;DHT22;7912;51.376;6.126;2022-12-20T18:16:48;13.70;99.90
15625;DHT22;7912;51.376;6.126;2022-12-20T18:19:17;13.70;99.90
15625;DHT22;7912;51.376;6.126;2022-12-20T18:21:44;13.70;99.90
15625;DHT22;7912;51.376;6.126;2022-12-20T18:24:13;13.70;99.90
15625;DHT22;7912;51.376;6.126;2022-12-20T18:26:42;13.70;99.90
15625;DHT22;7912;51.376;6.126;2022-12-20T18:29:10;13.70;99.90
15625;DHT22;7912;51.376;6.126;2022-12-20T18:31:38;13.70;99.90
15625;DHT22;7912;51.376;6.126;2022-12-20T18:34:05;13.60;99.90
15625;DHT22;7912;51.376;6.126;2022-12-20T18:36:36;13.60;99.90
15625;DHT22;7912;51.376;6.126;2022-12-20T18:39:05;13.60;99.90
15625;DHT22;7912;51.376;6.126;2022-12-20T18:41:34;13.60;99.90
15625;DHT22;7912;51.376;6.126;2022-12-20T18:44:03;13.60;99.90
15625;DHT22;7912;51.376;6.126;2022-12-20T18:46:32;13.60;99.90
15625;DHT22;7912;51.376;6.126;2022-12-20T18:49:00;13.60;99.90
15625;DHT22;7912;51.376;6.126;2022-12-20T18:51:34;13.60;99.90
15625;DHT22;7912;51.376;6.126;2022-12-20T18:54:07;13.60;99.90
15625;DHT22;7912;51.376;6.126;2022-12-20T18:56:37;13.60;99.90